sensor_id;sensor_type;location;lat;lon;timestamp;temperature;humidity
39019;DHT22;24786;51.984;5.872;2024-03-22T00:01:58;10.70;99.90
39019;DHT22;24786;51.984;5.872;2024-03-22T00:04:24;10.70;99.90
39019;DHT22;24786;51.984;5.872;2024-03-22T00:06:50;10.70;99.90
39019;DHT22;24786;51.984;5.872;2024-03-22T00:09:16;10.70;99.90
39019;DHT22;24786;51.984;5.872;2024-03-22T00:11:42;10.70;99.90
39019;DHT22;24786;51.984;5.872;2024-03-22T00:14:09;10.80;99.90
39019;DHT22;24786;51.984;5.872;2024-03-22T00:16:35;10.80;99.90
39019;DHT22;24786;51.984;5.872;2024-03-22T00:19:01;10.80;99.90
39019;DHT22;24786;51.984;5.872;2024-03-22T00:21:27;10.80;99.90
39019;DHT22;24786;51.984;5.872;2024-03-22T00:23:53;10.90;99.90
39019;DHT22;24786;51.984;5.872;2024-03-22T00:26:19;10.90;99.90
39019;DHT22;24786;51.984;5.872;2024-03-22T00:28:44;10.90;99.90
39019;DHT22;24786;51.984;5.872;2024-03-22T00:31:10;10.90;99.90
39019;DHT22;24786;51.984;5.872;2024-03-22T00:33:36;10.90;99.90
39019;DHT22;24786;51.984;5.872;2024-03-22T00:36:02;10.90;99.90
39019;DHT22;24786;51.984;5.872;2024-03-22T00:38:27;11.00;99.90
39019;DHT22;24786;51.984;5.872;2024-03-22T00:40:53;11.00;99.90
39019;DHT22;24786;51.984;5.872;2024-03-22T00:43:20;11.00;99.90
39019;DHT22;24786;51.984;5.872;2024-03-22T00:45:46;11.00;99.90
39019;DHT22;24786;51.984;5.872;2024-03-22T00:48:11;11.00;99.90
39019;DHT22;24786;51.984;5.872;2024-03-22T00:50:37;11.00;99.90
39019;DHT22;24786;51.984;5.872;2024-03-22T00:53:03;11.00;99.90
39019;DHT22;24786;51.984;5.872;2024-03-22T00:55:29;11.00;99.90
39019;DHT22;24786;51.984;5.872;2024-03-22T00:57:54;11.00;99.90
39019;DHT22;24786;51.984;5.872;2024-03-22T01:00:20;11.00;99.90
39019;DHT22;24786;51.984;5.872;2024-03-22T01:02:46;11.00;99.90
39019;DHT22;24786;51.984;5.872;2024-03-22T01:05:11;11.10;99.90
39019;DHT22;24786;51.984;5.872;2024-03-22T01:07:37;11.10;99.90
39019;DHT22;24786;51.984;5.872;2024-03-22T01:10:04;11.00;99.90
39019;DHT22;24786;51.984;5.872;2024-03-22T01:12:29;11.10;99.90
39019;DHT22;24786;51.984;5.872;2024-03-22T01:14:55;11.00;99.90
39019;DHT22;24786;51.984;5.872;2024-03-22T01:17:21;11.00;99.90
39019;DHT22;24786;51.984;5.872;2024-03-22T01:19:46;11.00;99.90
39019;DHT22;24786;51.984;5.872;2024-03-22T01:22:12;11.00;99.90
39019;DHT22;24786;51.984;5.872;2024-03-22T01:24:37;11.00;99.90
39019;DHT22;24786;51.984;5.872;2024-03-22T01:27:03;11.00;99.90
39019;DHT22;24786;51.984;5.872;2024-03-22T01:29:29;11.00;99.90
39019;DHT22;24786;51.984;5.872;2024-03-22T01:31:58;11.10;99.90
39019;DHT22;24786;51.984;5.872;2024-03-22T01:34:24;11.00;99.90
39019;DHT22;24786;51.984;5.872;2024-03-22T01:36:50;10.90;99.90
39019;DHT22;24786;51.984;5.872;2024-03-22T01:39:16;11.00;99.90
39019;DHT22;24786;51.984;5.872;2024-03-22T01:41:43;11.00;99.90
39019;DHT22;24786;51.984;5.872;2024-03-22T01:44:09;10.90;99.90
39019;DHT22;24786;51.984;5.872;2024-03-22T01:46:35;10.90;99.90
39019;DHT22;24786;51.984;5.872;2024-03-22T01:49:01;10.90;99.90
39019;DHT22;24786;51.984;5.872;2024-03-22T01:51:26;10.90;99.90
39019;DHT22;24786;51.984;5.872;2024-03-22T01:53:53;10.90;99.90
39019;DHT22;24786;51.984;5.872;2024-03-22T01:56:19;10.80;99.90
39019;DHT22;24786;51.984;5.872;2024-03-22T01:58:45;10.80;99.90
39019;DHT22;24786;51.984;5.872;2024-03-22T02:01:11;10.90;99.90
39019;DHT22;24786;51.984;5.872;2024-03-22T02:03:36;10.80;99.90
39019;DHT22;24786;51.984;5.872;2024-03-22T02:06:02;10.80;99.90
39019;DHT22;24786;51.984;5.872;2024-03-22T02:08:28;10.80;99.90
39019;DHT22;24786;51.984;5.872;2024-03-22T02:10:53;10.80;99.90
39019;DHT22;24786;51.984;5.872;2024-03-22T02:13:19;10.80;99.90
39019;DHT22;24786;51.984;5.872;2024-03-22T02:15:44;10.80;99.90
39019;DHT22;24786;51.984;5.872;2024-03-22T02:18:10;10.80;99.90
39019;DHT22;24786;51.984;5.872;2024-03-22T02:20:35;10.80;99.90
39019;DHT22;24786;51.984;5.872;2024-03-22T02:23:01;10.80;99.90
39019;DHT22;24786;51.984;5.872;2024-03-22T02:25:26;10.80;99.90
39019;DHT22;24786;51.984;5.872;2024-03-22T02:27:52;10.80;99.90
39019;DHT22;24786;51.984;5.872;2024-03-22T02:30:18;10.80;99.90
39019;DHT22;24786;51.984;5.872;2024-03-22T02:32:43;10.80;99.90
39019;DHT22;24786;51.984;5.872;2024-03-22T02:35:09;10.80;99.90
39019;DHT22;24786;51.984;5.872;2024-03-22T02:37:35;10.80;99.90
39019;DHT22;24786;51.984;5.872;2024-03-22T02:40:00;10.80;99.90
39019;DHT22;24786;51.984;5.872;2024-03-22T02:42:26;10.80;99.90
39019;DHT22;24786;51.984;5.872;2024-03-22T02:44:52;10.80;99.90
39019;DHT22;24786;51.984;5.872;2024-03-22T02:47:18;10.80;99.90
39019;DHT22;24786;51.984;5.872;2024-03-22T02:49:43;10.80;99.90
39019;DHT22;24786;51.984;5.872;2024-03-22T02:52:09;10.80;99.90
39019;DHT22;24786;51.984;5.872;2024-03-22T02:54:34;10.80;99.90
39019;DHT22;24786;51.984;5.872;2024-03-22T02:57:00;10.80;99.90
39019;DHT22;24786;51.984;5.872;2024-03-22T02:59:27;10.80;99.90
39019;DHT22;24786;51.984;5.872;2024-03-22T03:01:53;10.90;99.90
39019;DHT22;24786;51.984;5.872;2024-03-22T03:04:18;10.80;99.90
39019;DHT22;24786;51.984;5.872;2024-03-22T03:06:44;10.90;99.90
39019;DHT22;24786;51.984;5.872;2024-03-22T03:09:11;10.80;99.90
39019;DHT22;24786;51.984;5.872;2024-03-22T03:11:39;10.90;99.90
39019;DHT22;24786;51.984;5.872;2024-03-22T03:14:04;10.90;99.90
39019;DHT22;24786;51.984;5.872;2024-03-22T03:16:30;10.90;99.90
39019;DHT22;24786;51.984;5.872;2024-03-22T03:18:55;10.90;99.90
39019;DHT22;24786;51.984;5.872;2024-03-22T03:21:21;10.90;99.90
39019;DHT22;24786;51.984;5.872;2024-03-22T03:23:46;10.90;99.90
39019;DHT22;24786;51.984;5.872;2024-03-22T03:26:12;10.90;99.90
39019;DHT22;24786;51.984;5.872;2024-03-22T03:28:38;10.90;99.90
39019;DHT22;24786;51.984;5.872;2024-03-22T03:31:04;10.90;99.90
39019;DHT22;24786;51.984;5.872;2024-03-22T03:33:30;10.90;99.90
39019;DHT22;24786;51.984;5.872;2024-03-22T03:35:55;11.00;99.90
39019;DHT22;24786;51.984;5.872;2024-03-22T03:38:21;10.90;99.90
39019;DHT22;24786;51.984;5.872;2024-03-22T03:40:47;10.90;99.90
39019;DHT22;24786;51.984;5.872;2024-03-22T03:43:13;11.00;99.90
39019;DHT22;24786;51.984;5.872;2024-03-22T03:45:38;11.00;99.90
39019;DHT22;24786;51.984;5.872;2024-03-22T03:48:04;11.00;99.90
39019;DHT22;24786;51.984;5.872;2024-03-22T03:50:30;11.00;99.90
39019;DHT22;24786;51.984;5.872;2024-03-22T03:52:55;11.00;99.90
39019;DHT22;24786;51.984;5.872;2024-03-22T03:55:22;11.00;99.90
39019;DHT22;24786;51.984;5.872;2024-03-22T03:57:50;10.90;99.90
39019;DHT22;24786;51.984;5.872;2024-03-22T04:00:16;11.00;99.90
39019;DHT22;24786;51.984;5.872;2024-03-22T04:02:41;11.00;99.90
39019;DHT22;24786;51.984;5.872;2024-03-22T04:05:07;11.00;99.90
39019;DHT22;24786;51.984;5.872;2024-03-22T04:07:32;11.00;99.90
39019;DHT22;24786;51.984;5.872;2024-03-22T04:09:58;11.00;99.90
39019;DHT22;24786;51.984;5.872;2024-03-22T04:12:26;11.00;99.90
39019;DHT22;24786;51.984;5.872;2024-03-22T04:14:52;11.00;99.90
39019;DHT22;24786;51.984;5.872;2024-03-22T04:17:17;11.00;99.90
39019;DHT22;24786;51.984;5.872;2024-03-22T04:19:43;11.00;99.90
39019;DHT22;24786;51.984;5.872;2024-03-22T04:22:09;11.00;99.90
39019;DHT22;24786;51.984;5.872;2024-03-22T04:24:34;11.00;99.90
39019;DHT22;24786;51.984;5.872;2024-03-22T04:27:00;11.00;99.90
39019;DHT22;24786;51.984;5.872;2024-03-22T04:29:25;11.00;99.90
39019;DHT22;24786;51.984;5.872;2024-03-22T04:31:51;11.00;99.90
39019;DHT22;24786;51.984;5.872;2024-03-22T04:34:16;11.00;99.90
39019;DHT22;24786;51.984;5.872;2024-03-22T04:36:42;11.00;99.90
39019;DHT22;24786;51.984;5.872;2024-03-22T04:39:08;11.00;99.90
39019;DHT22;24786;51.984;5.872;2024-03-22T04:41:35;11.00;99.90
39019;DHT22;24786;51.984;5.872;2024-03-22T04:44:00;11.00;99.90
39019;DHT22;24786;51.984;5.872;2024-03-22T04:46:26;11.00;99.90
39019;DHT22;24786;51.984;5.872;2024-03-22T04:48:51;11.00;99.90
39019;DHT22;24786;51.984;5.872;2024-03-22T04:51:17;11.00;99.90
39019;DHT22;24786;51.984;5.872;2024-03-22T04:53:42;11.00;99.90
39019;DHT22;24786;51.984;5.872;2024-03-22T04:56:09;11.00;99.90
39019;DHT22;24786;51.984;5.872;2024-03-22T04:58:35;11.00;99.90
39019;DHT22;24786;51.984;5.872;2024-03-22T05:01:01;10.90;99.90
39019;DHT22;24786;51.984;5.872;2024-03-22T05:03:26;11.00;99.90
39019;DHT22;24786;51.984;5.872;2024-03-22T05:05:52;11.00;99.90
39019;DHT22;24786;51.984;5.872;2024-03-22T05:08:17;10.90;99.90
39019;DHT22;24786;51.984;5.872;2024-03-22T05:10:43;10.90;99.90
39019;DHT22;24786;51.984;5.872;2024-03-22T05:13:08;10.90;99.90
39019;DHT22;24786;51.984;5.872;2024-03-22T05:15:34;10.90;99.90
39019;DHT22;24786;51.984;5.872;2024-03-22T05:18:00;10.80;99.90
39019;DHT22;24786;51.984;5.872;2024-03-22T05:20:25;10.80;99.90
39019;DHT22;24786;51.984;5.872;2024-03-22T05:22:52;10.80;99.90
39019;DHT22;24786;51.984;5.872;2024-03-22T05:25:18;10.80;99.90
39019;DHT22;24786;51.984;5.872;2024-03-22T05:27:44;10.80;99.90
39019;DHT22;24786;51.984;5.872;2024-03-22T05:30:11;10.80;99.90
39019;DHT22;24786;51.984;5.872;2024-03-22T05:32:37;10.80;99.90
39019;DHT22;24786;51.984;5.872;2024-03-22T05:35:02;10.80;99.90
39019;DHT22;24786;51.984;5.872;2024-03-22T05:37:28;10.80;99.90
39019;DHT22;24786;51.984;5.872;2024-03-22T05:39:54;10.80;99.90
39019;DHT22;24786;51.984;5.872;2024-03-22T05:42:19;10.70;99.90
39019;DHT22;24786;51.984;5.872;2024-03-22T05:44:45;10.70;99.90
39019;DHT22;24786;51.984;5.872;2024-03-22T05:47:11;10.70;99.90
39019;DHT22;24786;51.984;5.872;2024-03-22T05:49:36;10.70;99.90
39019;DHT22;24786;51.984;5.872;2024-03-22T05:52:02;10.70;99.90
39019;DHT22;24786;51.984;5.872;2024-03-22T05:54:27;10.70;99.90
39019;DHT22;24786;51.984;5.872;2024-03-22T05:56:53;10.70;99.90
39019;DHT22;24786;51.984;5.872;2024-03-22T05:59:18;10.70;99.90
39019;DHT22;24786;51.984;5.872;2024-03-22T06:01:44;10.70;99.90
39019;DHT22;24786;51.984;5.872;2024-03-22T06:04:10;10.70;99.90
39019;DHT22;24786;51.984;5.872;2024-03-22T06:06:35;10.70;99.90
39019;DHT22;24786;51.984;5.872;2024-03-22T06:09:04;10.70;99.90
39019;DHT22;24786;51.984;5.872;2024-03-22T06:11:38;10.70;99.90
39019;DHT22;24786;51.984;5.872;2024-03-22T06:14:05;10.70;99.90
39019;DHT22;24786;51.984;5.872;2024-03-22T06:16:30;10.70;99.90
39019;DHT22;24786;51.984;5.872;2024-03-22T06:18:56;10.70;99.90
39019;DHT22;24786;51.984;5.872;2024-03-22T06:21:22;10.70;99.90
39019;DHT22;24786;51.984;5.872;2024-03-22T06:23:50;10.60;99.90
39019;DHT22;24786;51.984;5.872;2024-03-22T06:26:16;10.70;99.90
39019;DHT22;24786;51.984;5.872;2024-03-22T06:28:41;10.70;99.90
39019;DHT22;24786;51.984;5.872;2024-03-22T06:31:07;10.70;99.90
39019;DHT22;24786;51.984;5.872;2024-03-22T06:33:33;10.60;99.90
39019;DHT22;24786;51.984;5.872;2024-03-22T06:35:59;10.70;99.90
39019;DHT22;24786;51.984;5.872;2024-03-22T06:38:25;10.60;99.90
39019;DHT22;24786;51.984;5.872;2024-03-22T06:40:50;10.70;99.90
39019;DHT22;24786;51.984;5.872;2024-03-22T06:43:16;10.70;99.90
39019;DHT22;24786;51.984;5.872;2024-03-22T06:45:42;10.70;99.90
39019;DHT22;24786;51.984;5.872;2024-03-22T06:48:07;10.70;99.90
39019;DHT22;24786;51.984;5.872;2024-03-22T06:50:33;10.70;99.90
39019;DHT22;24786;51.984;5.872;2024-03-22T06:52:58;10.70;99.90
39019;DHT22;24786;51.984;5.872;2024-03-22T06:55:24;10.70;99.90
39019;DHT22;24786;51.984;5.872;2024-03-22T06:57:50;10.80;99.90
39019;DHT22;24786;51.984;5.872;2024-03-22T07:00:16;10.80;99.90
39019;DHT22;24786;51.984;5.872;2024-03-22T07:02:42;10.80;99.90
39019;DHT22;24786;51.984;5.872;2024-03-22T07:05:08;10.80;99.90
39019;DHT22;24786;51.984;5.872;2024-03-22T07:07:35;10.80;99.90
39019;DHT22;24786;51.984;5.872;2024-03-22T07:10:04;10.80;99.90
39019;DHT22;24786;51.984;5.872;2024-03-22T07:12:32;10.90;99.90
39019;DHT22;24786;51.984;5.872;2024-03-22T07:14:59;10.80;99.90
39019;DHT22;24786;51.984;5.872;2024-03-22T07:17:25;10.80;99.90
39019;DHT22;24786;51.984;5.872;2024-03-22T07:19:51;10.80;99.90
39019;DHT22;24786;51.984;5.872;2024-03-22T07:22:17;10.90;99.90
39019;DHT22;24786;51.984;5.872;2024-03-22T07:24:43;10.90;99.90
39019;DHT22;24786;51.984;5.872;2024-03-22T07:27:08;11.00;99.90
39019;DHT22;24786;51.984;5.872;2024-03-22T07:29:35;11.10;99.90
39019;DHT22;24786;51.984;5.872;2024-03-22T07:32:00;11.10;99.90
39019;DHT22;24786;51.984;5.872;2024-03-22T07:34:26;11.20;99.90
39019;DHT22;24786;51.984;5.872;2024-03-22T07:36:51;11.20;99.90
39019;DHT22;24786;51.984;5.872;2024-03-22T07:39:17;11.30;99.90
39019;DHT22;24786;51.984;5.872;2024-03-22T07:41:42;11.30;99.90
39019;DHT22;24786;51.984;5.872;2024-03-22T07:44:08;11.30;99.90
39019;DHT22;24786;51.984;5.872;2024-03-22T07:46:33;11.30;99.90
39019;DHT22;24786;51.984;5.872;2024-03-22T07:48:59;11.30;99.90
39019;DHT22;24786;51.984;5.872;2024-03-22T07:51:25;11.40;99.90
39019;DHT22;24786;51.984;5.872;2024-03-22T07:53:50;11.40;99.90
39019;DHT22;24786;51.984;5.872;2024-03-22T07:56:17;11.30;99.90
39019;DHT22;24786;51.984;5.872;2024-03-22T07:58:43;11.40;99.90
39019;DHT22;24786;51.984;5.872;2024-03-22T08:01:09;11.30;99.90
39019;DHT22;24786;51.984;5.872;2024-03-22T08:03:34;11.30;99.90
39019;DHT22;24786;51.984;5.872;2024-03-22T08:06:00;11.20;99.90
39019;DHT22;24786;51.984;5.872;2024-03-22T08:08:25;11.20;99.90
39019;DHT22;24786;51.984;5.872;2024-03-22T08:10:51;11.30;99.90
39019;DHT22;24786;51.984;5.872;2024-03-22T08:13:16;11.30;99.90
39019;DHT22;24786;51.984;5.872;2024-03-22T08:15:42;11.30;99.90
39019;DHT22;24786;51.984;5.872;2024-03-22T08:18:11;11.30;99.90
39019;DHT22;24786;51.984;5.872;2024-03-22T08:20:36;11.30;99.90
39019;DHT22;24786;51.984;5.872;2024-03-22T08:23:04;11.20;99.90
39019;DHT22;24786;51.984;5.872;2024-03-22T08:25:30;11.30;99.90
39019;DHT22;24786;51.984;5.872;2024-03-22T08:27:56;11.20;99.90
39019;DHT22;24786;51.984;5.872;2024-03-22T08:30:22;11.20;99.90
39019;DHT22;24786;51.984;5.872;2024-03-22T08:32:48;11.20;99.90
39019;DHT22;24786;51.984;5.872;2024-03-22T08:35:13;11.20;99.90
39019;DHT22;24786;51.984;5.872;2024-03-22T08:37:39;11.30;99.90
39019;DHT22;24786;51.984;5.872;2024-03-22T08:40:05;11.20;99.90
39019;DHT22;24786;51.984;5.872;2024-03-22T08:42:34;11.20;99.90
39019;DHT22;24786;51.984;5.872;2024-03-22T08:44:59;11.30;99.90
39019;DHT22;24786;51.984;5.872;2024-03-22T08:47:25;11.30;99.90
39019;DHT22;24786;51.984;5.872;2024-03-22T08:49:51;11.30;99.90
39019;DHT22;24786;51.984;5.872;2024-03-22T08:52:16;11.20;99.90
39019;DHT22;24786;51.984;5.872;2024-03-22T08:54:42;11.20;99.90
39019;DHT22;24786;51.984;5.872;2024-03-22T08:57:07;11.20;99.90
39019;DHT22;24786;51.984;5.872;2024-03-22T08:59:33;11.20;99.90
39019;DHT22;24786;51.984;5.872;2024-03-22T09:01:59;11.20;99.90
39019;DHT22;24786;51.984;5.872;2024-03-22T09:04:25;11.10;99.90
39019;DHT22;24786;51.984;5.872;2024-03-22T09:06:50;11.10;99.90
39019;DHT22;24786;51.984;5.872;2024-03-22T09:09:16;11.10;99.90
39019;DHT22;24786;51.984;5.872;2024-03-22T09:11:42;11.00;99.90
39019;DHT22;24786;51.984;5.872;2024-03-22T09:14:08;11.00;99.90
39019;DHT22;24786;51.984;5.872;2024-03-22T09:16:33;11.00;99.90
39019;DHT22;24786;51.984;5.872;2024-03-22T09:18:59;10.90;99.90
39019;DHT22;24786;51.984;5.872;2024-03-22T09:21:25;10.90;99.90
39019;DHT22;24786;51.984;5.872;2024-03-22T09:23:50;11.00;99.90
39019;DHT22;24786;51.984;5.872;2024-03-22T09:26:16;11.00;99.90
39019;DHT22;24786;51.984;5.872;2024-03-22T09:28:41;11.00;99.90
39019;DHT22;24786;51.984;5.872;2024-03-22T09:31:08;10.90;99.90
39019;DHT22;24786;51.984;5.872;2024-03-22T09:33:34;10.90;99.90
39019;DHT22;24786;51.984;5.872;2024-03-22T09:35:59;11.00;99.90
39019;DHT22;24786;51.984;5.872;2024-03-22T09:38:25;10.90;99.90
39019;DHT22;24786;51.984;5.872;2024-03-22T09:40:51;11.00;99.90
39019;DHT22;24786;51.984;5.872;2024-03-22T09:43:20;11.00;99.90
39019;DHT22;24786;51.984;5.872;2024-03-22T09:45:47;11.00;99.90
39019;DHT22;24786;51.984;5.872;2024-03-22T09:48:16;11.00;99.90
39019;DHT22;24786;51.984;5.872;2024-03-22T09:50:42;11.00;99.90
39019;DHT22;24786;51.984;5.872;2024-03-22T09:53:12;11.00;99.90
39019;DHT22;24786;51.984;5.872;2024-03-22T09:55:38;11.00;99.90
39019;DHT22;24786;51.984;5.872;2024-03-22T09:58:08;11.00;99.90
39019;DHT22;24786;51.984;5.872;2024-03-22T10:00:35;11.00;99.90
39019;DHT22;24786;51.984;5.872;2024-03-22T10:03:01;11.00;99.90
39019;DHT22;24786;51.984;5.872;2024-03-22T10:05:27;11.00;99.90
39019;DHT22;24786;51.984;5.872;2024-03-22T10:07:53;11.00;99.90
39019;DHT22;24786;51.984;5.872;2024-03-22T10:10:19;11.00;99.90
39019;DHT22;24786;51.984;5.872;2024-03-22T10:12:45;11.00;99.90
39019;DHT22;24786;51.984;5.872;2024-03-22T10:15:12;11.00;99.90
39019;DHT22;24786;51.984;5.872;2024-03-22T10:17:39;11.00;99.90
39019;DHT22;24786;51.984;5.872;2024-03-22T10:20:07;11.00;99.90
39019;DHT22;24786;51.984;5.872;2024-03-22T10:22:48;11.10;99.90
39019;DHT22;24786;51.984;5.872;2024-03-22T10:25:14;11.10;99.90
39019;DHT22;24786;51.984;5.872;2024-03-22T10:27:40;11.00;99.90
39019;DHT22;24786;51.984;5.872;2024-03-22T10:30:10;11.00;99.90
39019;DHT22;24786;51.984;5.872;2024-03-22T10:32:36;11.00;99.90
39019;DHT22;24786;51.984;5.872;2024-03-22T10:35:06;11.00;99.90
39019;DHT22;24786;51.984;5.872;2024-03-22T10:37:33;10.90;99.90
39019;DHT22;24786;51.984;5.872;2024-03-22T10:40:02;10.90;99.90
39019;DHT22;24786;51.984;5.872;2024-03-22T10:42:35;11.00;99.90
39019;DHT22;24786;51.984;5.872;2024-03-22T10:45:02;11.00;99.90
39019;DHT22;24786;51.984;5.872;2024-03-22T10:47:30;11.00;99.90
39019;DHT22;24786;51.984;5.872;2024-03-22T10:50:07;11.00;99.90
39019;DHT22;24786;51.984;5.872;2024-03-22T10:52:46;10.90;99.90
39019;DHT22;24786;51.984;5.872;2024-03-22T10:55:21;10.90;99.90
39019;DHT22;24786;51.984;5.872;2024-03-22T10:57:48;10.90;99.90
39019;DHT22;24786;51.984;5.872;2024-03-22T11:00:14;10.90;99.90
39019;DHT22;24786;51.984;5.872;2024-03-22T11:02:44;10.90;99.90
39019;DHT22;24786;51.984;5.872;2024-03-22T11:05:17;10.90;99.90
39019;DHT22;24786;51.984;5.872;2024-03-22T11:07:44;10.90;99.90
39019;DHT22;24786;51.984;5.872;2024-03-22T11:10:11;10.90;99.90
39019;DHT22;24786;51.984;5.872;2024-03-22T11:12:38;10.90;99.90
39019;DHT22;24786;51.984;5.872;2024-03-22T11:15:04;10.80;99.90
39019;DHT22;24786;51.984;5.872;2024-03-22T11:17:30;10.90;99.90
39019;DHT22;24786;51.984;5.872;2024-03-22T11:19:56;10.80;99.90
39019;DHT22;24786;51.984;5.872;2024-03-22T11:22:21;10.80;99.90
39019;DHT22;24786;51.984;5.872;2024-03-22T11:24:47;10.80;99.90
39019;DHT22;24786;51.984;5.872;2024-03-22T11:27:12;10.80;99.90
39019;DHT22;24786;51.984;5.872;2024-03-22T11:29:39;10.80;99.90
39019;DHT22;24786;51.984;5.872;2024-03-22T11:32:07;10.80;99.90
39019;DHT22;24786;51.984;5.872;2024-03-22T11:34:38;10.80;99.90
39019;DHT22;24786;51.984;5.872;2024-03-22T11:37:05;10.80;99.90
39019;DHT22;24786;51.984;5.872;2024-03-22T11:39:33;10.80;99.90
39019;DHT22;24786;51.984;5.872;2024-03-22T11:42:01;10.80;99.90
39019;DHT22;24786;51.984;5.872;2024-03-22T11:44:27;10.80;99.90
39019;DHT22;24786;51.984;5.872;2024-03-22T11:46:53;10.80;99.90
39019;DHT22;24786;51.984;5.872;2024-03-22T11:49:19;10.90;99.90
39019;DHT22;24786;51.984;5.872;2024-03-22T11:51:45;10.80;99.90
39019;DHT22;24786;51.984;5.872;2024-03-22T11:54:11;10.80;99.90
39019;DHT22;24786;51.984;5.872;2024-03-22T11:56:36;10.80;99.90
39019;DHT22;24786;51.984;5.872;2024-03-22T11:59:02;10.80;99.90
39019;DHT22;24786;51.984;5.872;2024-03-22T12:01:29;10.80;99.90
39019;DHT22;24786;51.984;5.872;2024-03-22T12:03:55;10.80;99.90
39019;DHT22;24786;51.984;5.872;2024-03-22T12:06:26;10.80;99.90
39019;DHT22;24786;51.984;5.872;2024-03-22T12:08:52;10.90;99.90
39019;DHT22;24786;51.984;5.872;2024-03-22T12:11:17;10.90;99.90
39019;DHT22;24786;51.984;5.872;2024-03-22T12:13:43;10.90;99.90
39019;DHT22;24786;51.984;5.872;2024-03-22T12:16:08;10.90;99.90
39019;DHT22;24786;51.984;5.872;2024-03-22T12:18:34;10.90;99.90
39019;DHT22;24786;51.984;5.872;2024-03-22T12:21:00;10.80;99.90
39019;DHT22;24786;51.984;5.872;2024-03-22T12:23:26;10.90;99.90
39019;DHT22;24786;51.984;5.872;2024-03-22T12:25:52;10.90;99.90
39019;DHT22;24786;51.984;5.872;2024-03-22T12:28:18;10.90;99.90
39019;DHT22;24786;51.984;5.872;2024-03-22T12:30:44;11.00;99.90
39019;DHT22;24786;51.984;5.872;2024-03-22T12:33:09;10.90;99.90
39019;DHT22;24786;51.984;5.872;2024-03-22T12:35:44;11.00;99.90
39019;DHT22;24786;51.984;5.872;2024-03-22T12:38:10;11.00;99.90
39019;DHT22;24786;51.984;5.872;2024-03-22T12:40:39;11.00;99.90
39019;DHT22;24786;51.984;5.872;2024-03-22T12:43:05;11.00;99.90
39019;DHT22;24786;51.984;5.872;2024-03-22T12:45:31;11.00;99.90
39019;DHT22;24786;51.984;5.872;2024-03-22T12:47:58;10.90;99.90
39019;DHT22;24786;51.984;5.872;2024-03-22T12:50:24;11.00;99.90
39019;DHT22;24786;51.984;5.872;2024-03-22T12:52:49;11.00;99.90
39019;DHT22;24786;51.984;5.872;2024-03-22T12:55:15;11.00;99.90
39019;DHT22;24786;51.984;5.872;2024-03-22T12:57:40;11.00;99.90
39019;DHT22;24786;51.984;5.872;2024-03-22T13:00:07;11.00;99.90
39019;DHT22;24786;51.984;5.872;2024-03-22T13:02:39;11.00;99.90
39019;DHT22;24786;51.984;5.872;2024-03-22T13:05:07;11.00;99.90
39019;DHT22;24786;51.984;5.872;2024-03-22T13:07:33;11.00;99.90
39019;DHT22;24786;51.984;5.872;2024-03-22T13:10:02;11.00;99.90
39019;DHT22;24786;51.984;5.872;2024-03-22T13:12:28;11.00;99.90
39019;DHT22;24786;51.984;5.872;2024-03-22T13:15:08;11.10;99.90
39019;DHT22;24786;51.984;5.872;2024-03-22T13:17:35;11.20;99.90
39019;DHT22;24786;51.984;5.872;2024-03-22T13:20:00;11.10;99.90
39019;DHT22;24786;51.984;5.872;2024-03-22T13:22:26;11.20;99.90
39019;DHT22;24786;51.984;5.872;2024-03-22T13:24:51;11.20;99.90
39019;DHT22;24786;51.984;5.872;2024-03-22T13:27:17;11.20;99.90
39019;DHT22;24786;51.984;5.872;2024-03-22T13:29:43;11.30;99.90
39019;DHT22;24786;51.984;5.872;2024-03-22T13:32:08;11.30;99.90
39019;DHT22;24786;51.984;5.872;2024-03-22T13:34:37;11.30;99.90
39019;DHT22;24786;51.984;5.872;2024-03-22T13:37:04;11.20;99.90
39019;DHT22;24786;51.984;5.872;2024-03-22T13:39:29;11.20;99.90
39019;DHT22;24786;51.984;5.872;2024-03-22T13:41:58;11.20;99.90
39019;DHT22;24786;51.984;5.872;2024-03-22T13:44:24;11.20;99.90
39019;DHT22;24786;51.984;5.872;2024-03-22T13:46:55;11.20;99.90
39019;DHT22;24786;51.984;5.872;2024-03-22T13:49:21;11.20;99.90
39019;DHT22;24786;51.984;5.872;2024-03-22T13:51:47;11.10;99.90
39019;DHT22;24786;51.984;5.872;2024-03-22T13:54:13;11.10;99.90
39019;DHT22;24786;51.984;5.872;2024-03-22T13:56:39;11.10;99.90
39019;DHT22;24786;51.984;5.872;2024-03-22T13:59:05;11.00;99.90
39019;DHT22;24786;51.984;5.872;2024-03-22T14:01:34;11.00;99.90
39019;DHT22;24786;51.984;5.872;2024-03-22T14:04:00;11.00;99.90
39019;DHT22;24786;51.984;5.872;2024-03-22T14:06:26;11.00;99.90
39019;DHT22;24786;51.984;5.872;2024-03-22T14:08:51;11.00;99.90
39019;DHT22;24786;51.984;5.872;2024-03-22T14:11:20;11.00;99.90
39019;DHT22;24786;51.984;5.872;2024-03-22T14:13:45;11.00;99.90
39019;DHT22;24786;51.984;5.872;2024-03-22T14:16:11;11.00;99.90
39019;DHT22;24786;51.984;5.872;2024-03-22T14:18:36;11.00;99.90
39019;DHT22;24786;51.984;5.872;2024-03-22T14:21:02;11.00;99.90
39019;DHT22;24786;51.984;5.872;2024-03-22T14:23:28;11.00;99.90
39019;DHT22;24786;51.984;5.872;2024-03-22T14:25:55;10.90;99.90
39019;DHT22;24786;51.984;5.872;2024-03-22T14:28:20;10.90;99.90
39019;DHT22;24786;51.984;5.872;2024-03-22T14:30:47;10.90;99.90
39019;DHT22;24786;51.984;5.872;2024-03-22T14:36:29;10.90;99.90
39019;DHT22;24786;51.984;5.872;2024-03-22T14:38:54;10.90;99.90
39019;DHT22;24786;51.984;5.872;2024-03-22T14:41:35;10.90;99.90
39019;DHT22;24786;51.984;5.872;2024-03-22T14:44:01;10.90;99.90
39019;DHT22;24786;51.984;5.872;2024-03-22T14:46:27;10.90;99.90
39019;DHT22;24786;51.984;5.872;2024-03-22T14:48:54;10.80;99.90
39019;DHT22;24786;51.984;5.872;2024-03-22T14:51:20;10.80;99.90
39019;DHT22;24786;51.984;5.872;2024-03-22T14:53:46;10.70;99.90
39019;DHT22;24786;51.984;5.872;2024-03-22T14:56:14;10.80;99.90
39019;DHT22;24786;51.984;5.872;2024-03-22T14:58:46;10.70;99.90
39019;DHT22;24786;51.984;5.872;2024-03-22T15:01:29;10.80;99.90
39019;DHT22;24786;51.984;5.872;2024-03-22T15:03:55;10.80;99.90
39019;DHT22;24786;51.984;5.872;2024-03-22T15:06:21;10.80;99.90
39019;DHT22;24786;51.984;5.872;2024-03-22T15:09:01;10.80;99.90
39019;DHT22;24786;51.984;5.872;2024-03-22T15:11:46;10.80;99.90
39019;DHT22;24786;51.984;5.872;2024-03-22T15:14:23;10.70;99.90
39019;DHT22;24786;51.984;5.872;2024-03-22T15:16:55;10.80;99.90
39019;DHT22;24786;51.984;5.872;2024-03-22T15:19:30;10.70;99.90
39019;DHT22;24786;51.984;5.872;2024-03-22T15:21:56;10.80;99.90
39019;DHT22;24786;51.984;5.872;2024-03-22T15:24:33;10.80;99.90
39019;DHT22;24786;51.984;5.872;2024-03-22T15:26:59;10.80;99.90
39019;DHT22;24786;51.984;5.872;2024-03-22T15:29:24;10.70;99.90